Аэропорт: Мурманск. Мурманск

ICAO: ULMM

METAR:
2018/07/22 20:00
ULMM 222000Z 20002MPS 9999 SCT030CB 19/17 Q1004 R13/290160 NOSIG RMK QFE746
METAR:
2018/07/22 18:39
TAF TAF ULMM 221700Z 2218/2318 14003G09MPS 3100 -SHRA BR SCT007 BKN013CB 
      TEMPO 2218/2302 19003G09MPS 0300 TSRA FG BKN002 BKN013CB 
      TEMPO 2302/2306 22003G09MPS 1000 -SHRA BR BKN004 BKN013CB 
     FM230600 21004G10MPS 9999 BKN011 
      TEMPO 2306/2318 25006G14MPS 3100 -TSRA BR BKN011CB